createdAt,value
2023-02-14T00:01:42.446Z,50.07
2023-02-14T00:04:10.590Z,50.90
2023-02-14T00:06:39.683Z,51.65
2023-02-14T00:09:09.318Z,51.37
2023-02-14T00:11:37.322Z,50.90
2023-02-14T00:14:23.735Z,50.92
2023-02-14T00:16:53.858Z,50.10
2023-02-14T00:19:23.872Z,50.54
2023-02-14T00:21:52.144Z,50.55
2023-02-14T00:24:22.526Z,50.93
2023-02-14T00:26:51.377Z,50.69
2023-02-14T00:29:21.881Z,50.89
2023-02-14T00:31:50.053Z,50.42
2023-02-14T00:34:20.460Z,51.18
2023-02-14T00:36:49.668Z,50.63
2023-02-14T00:39:18.396Z,51.23
2023-02-14T00:41:46.724Z,50.93
2023-02-14T00:44:15.328Z,51.36
2023-02-14T00:46:43.377Z,50.92
2023-02-14T00:49:11.899Z,51.73
2023-02-14T00:51:41.549Z,51.30
2023-02-14T00:54:09.547Z,50.51
2023-02-14T00:56:37.681Z,51.51
2023-02-14T00:59:05.608Z,51.61
2023-02-14T01:01:33.778Z,51.64
2023-02-14T01:04:02.887Z,51.90
2023-02-14T01:06:31.016Z,51.94
2023-02-14T01:09:00.667Z,52.51
2023-02-14T01:11:30.309Z,51.85
2023-02-14T01:13:59.757Z,52.06
2023-02-14T01:16:30.582Z,51.73
2023-02-14T01:19:00.671Z,52.95
2023-02-14T01:21:30.881Z,52.82
2023-02-14T01:24:05.897Z,52.99
2023-02-14T01:26:34.746Z,53.23
2023-02-14T01:29:02.898Z,52.81
2023-02-14T01:31:33.457Z,53.63
2023-02-14T01:34:02.200Z,52.44
2023-02-14T01:36:32.894Z,53.23
2023-02-14T01:39:05.606Z,53.19
2023-02-14T01:41:37.087Z,52.65
2023-02-14T01:44:07.568Z,53.19
2023-02-14T01:46:37.937Z,52.67
2023-02-14T01:49:12.868Z,52.77
2023-02-14T01:51:45.753Z,52.00
2023-02-14T01:54:15.841Z,52.78
2023-02-14T01:56:48.842Z,53.04
2023-02-14T01:59:20.726Z,52.95
2023-02-14T02:01:51.645Z,53.79
2023-02-14T02:04:27.503Z,53.69
2023-02-14T02:07:00.029Z,54.49
2023-02-14T02:09:34.206Z,53.54
2023-02-14T02:12:03.137Z,54.69
2023-02-14T02:14:31.537Z,54.17
2023-02-14T02:17:29.184Z,55.08
2023-02-14T02:20:29.738Z,54.82
2023-02-14T02:23:22.398Z,55.23
2023-02-14T02:26:12.759Z,54.78
2023-02-14T02:29:14.899Z,55.35
2023-02-14T02:32:14.830Z,55.61
2023-02-14T02:35:12.558Z,55.81
2023-02-14T02:37:54.883Z,55.75
2023-02-14T02:40:38.645Z,56.52
2023-02-14T02:43:16.482Z,56.60
2023-02-14T02:46:08.367Z,56.20
2023-02-14T02:48:42.066Z,55.92
2023-02-14T02:51:35.133Z,56.29
2023-02-14T02:54:15.273Z,56.27
2023-02-14T02:56:51.137Z,55.58
2023-02-14T02:59:23.140Z,55.03
2023-02-14T03:01:58.032Z,55.12
2023-02-14T03:04:46.034Z,54.46
2023-02-14T03:07:43.279Z,54.70
2023-02-14T03:10:16.045Z,54.11
2023-02-14T03:13:19.360Z,53.56
2023-02-14T03:16:09.184Z,54.17
2023-02-14T03:19:02.795Z,53.87
2023-02-14T03:21:38.531Z,53.56
2023-02-14T03:24:13.815Z,53.21
2023-02-14T03:26:50.040Z,53.44
2023-02-14T03:29:25.263Z,53.34
2023-02-14T03:32:00.606Z,54.12
2023-02-14T03:34:35.319Z,53.63
2023-02-14T03:37:11.354Z,54.01
2023-02-14T03:39:46.623Z,53.98
2023-02-14T03:42:22.567Z,53.13
2023-02-14T03:44:53.798Z,53.70
2023-02-14T03:47:25.620Z,53.48
2023-02-14T03:49:57.813Z,53.92
2023-02-14T03:52:28.204Z,53.73
2023-02-14T03:54:59.037Z,54.31
2023-02-14T03:57:31.101Z,54.28
2023-02-14T03:59:59.580Z,54.04
2023-02-14T04:02:32.542Z,53.81
2023-02-14T04:05:02.732Z,54.17
2023-02-14T04:07:30.973Z,53.69
2023-02-14T04:09:59.174Z,54.33
2023-02-14T04:12:37.514Z,53.47
2023-02-14T04:15:07.310Z,54.17
2023-02-14T04:17:52.790Z,53.71
2023-02-14T04:20:21.247Z,53.79
2023-02-14T04:22:49.587Z,54.66
2023-02-14T04:25:17.853Z,53.97
2023-02-14T04:27:47.340Z,54.83
2023-02-14T04:30:18.050Z,54.54
2023-02-14T04:32:46.498Z,54.15
2023-02-14T04:35:14.528Z,54.85
2023-02-14T04:37:42.576Z,54.37
2023-02-14T04:40:11.686Z,55.25
2023-02-14T04:42:39.826Z,54.68
2023-02-14T04:45:10.003Z,54.86
2023-02-14T04:47:38.179Z,55.11
2023-02-14T04:50:07.528Z,54.68
2023-02-14T04:52:35.496Z,54.55
2023-02-14T04:55:04.415Z,54.64
2023-02-14T04:57:32.767Z,55.57
2023-02-14T05:00:00.764Z,56.20
2023-02-14T05:02:30.087Z,56.16
2023-02-14T05:04:58.016Z,55.87
2023-02-14T05:07:28.843Z,56.22
2023-02-14T05:10:00.036Z,55.84
2023-02-14T05:12:28.325Z,55.73
2023-02-14T05:14:57.696Z,55.50
2023-02-14T05:17:25.687Z,55.78
2023-02-14T05:19:57.636Z,55.97
2023-02-14T05:22:25.797Z,55.40
2023-02-14T05:24:53.752Z,55.31
2023-02-14T05:27:21.839Z,55.41
2023-02-14T05:29:50.053Z,55.24
2023-02-14T05:32:18.286Z,55.27
2023-02-14T05:34:46.284Z,55.16
2023-02-14T05:37:15.663Z,55.01
2023-02-14T05:39:43.604Z,55.21
2023-02-14T05:42:11.733Z,55.38
2023-02-14T05:44:39.705Z,55.55
2023-02-14T05:47:07.824Z,55.96
2023-02-14T05:49:38.740Z,55.49
2023-02-14T05:52:07.577Z,56.10
2023-02-14T05:54:37.157Z,55.26
2023-02-14T05:57:05.103Z,55.20
2023-02-14T05:59:33.296Z,54.93
2023-02-14T06:02:01.494Z,55.14
2023-02-14T06:04:29.626Z,55.73
2023-02-14T06:06:57.600Z,55.42
2023-02-14T06:09:25.846Z,55.07
2023-02-14T06:11:55.458Z,55.27
2023-02-14T06:14:23.446Z,55.34
2023-02-14T06:16:51.716Z,55.44
2023-02-14T06:19:19.885Z,54.98
2023-02-14T06:21:48.143Z,54.76
2023-02-14T06:24:16.250Z,54.43
2023-02-14T06:26:44.304Z,54.75
2023-02-14T06:29:14.227Z,54.60
2023-02-14T06:31:42.407Z,54.16
2023-02-14T06:34:10.455Z,54.05
2023-02-14T06:36:39.072Z,54.79
2023-02-14T06:39:07.166Z,54.55
2023-02-14T06:41:35.301Z,55.02
2023-02-14T06:44:03.555Z,54.41
2023-02-14T06:46:33.139Z,54.59
2023-02-14T06:49:01.282Z,54.52
2023-02-14T06:51:29.353Z,54.46
2023-02-14T06:53:57.473Z,54.59
2023-02-14T06:56:25.447Z,54.56
2023-02-14T06:58:53.645Z,54.47
2023-02-14T07:01:24.594Z,54.56
2023-02-14T07:03:54.134Z,54.79
2023-02-14T07:06:22.189Z,54.83
2023-02-14T07:08:50.133Z,54.15
2023-02-14T07:11:18.333Z,54.32
2023-02-14T07:13:48.514Z,53.92
2023-02-14T07:16:17.406Z,54.00
2023-02-14T07:18:45.348Z,53.12
2023-02-14T07:21:15.014Z,53.45
2023-02-14T07:23:46.379Z,53.20
2023-02-14T07:26:18.220Z,52.91
2023-02-14T07:28:46.654Z,52.37
2023-02-14T07:31:14.680Z,52.43
2023-02-14T07:33:43.006Z,52.20
2023-02-14T07:36:11.677Z,52.13
2023-02-14T07:38:44.132Z,52.11
2023-02-14T07:41:12.829Z,51.34
2023-02-14T07:43:41.012Z,51.04
2023-02-14T07:46:09.238Z,51.63
2023-02-14T07:48:39.307Z,50.98
2023-02-14T07:51:07.365Z,50.59
2023-02-14T07:53:35.374Z,49.77
2023-02-14T07:56:04.780Z,49.77
2023-02-14T07:58:35.569Z,49.99
2023-02-14T08:01:03.653Z,50.13
2023-02-14T08:03:31.589Z,49.61
2023-02-14T08:05:59.518Z,49.83
2023-02-14T08:08:28.697Z,49.54
2023-02-14T08:10:56.898Z,49.74
2023-02-14T08:13:26.316Z,49.36
2023-02-14T08:16:07.502Z,49.55
2023-02-14T08:18:37.678Z,49.26
2023-02-14T08:21:07.228Z,48.36
2023-02-14T08:23:35.549Z,47.71
2023-02-14T08:26:04.113Z,47.85
2023-02-14T08:28:34.934Z,47.04
2023-02-14T08:31:04.397Z,45.83
2023-02-14T08:33:32.659Z,45.28
2023-02-14T08:36:00.872Z,44.81
2023-02-14T08:38:29.020Z,44.08
2023-02-14T08:41:01.818Z,44.13
2023-02-14T08:43:31.483Z,44.21
2023-02-14T08:46:02.357Z,43.18
2023-02-14T08:48:30.564Z,43.59
2023-02-14T08:51:06.412Z,43.90
2023-02-14T08:53:34.869Z,43.27
2023-02-14T08:56:07.538Z,43.29
2023-02-14T08:58:36.243Z,43.80
2023-02-14T09:01:09.529Z,43.83
2023-02-14T09:03:38.531Z,42.87
2023-02-14T09:06:08.406Z,43.20
2023-02-14T09:08:37.723Z,42.14
2023-02-14T09:11:08.854Z,42.66
2023-02-14T09:13:37.121Z,41.58
2023-02-14T09:16:07.702Z,41.40
2023-02-14T09:18:35.751Z,41.36
2023-02-14T09:21:07.864Z,40.84
2023-02-14T09:23:38.344Z,41.57
2023-02-14T09:26:12.413Z,41.44
2023-02-14T09:28:41.357Z,41.60
2023-02-14T09:31:12.758Z,40.30
2023-02-14T09:33:41.485Z,39.88
2023-02-14T09:36:21.902Z,39.96
2023-02-14T09:38:50.126Z,39.05
2023-02-14T09:41:39.721Z,38.75
2023-02-14T09:44:12.689Z,38.90
2023-02-14T09:46:47.779Z,38.18
2023-02-14T09:49:19.147Z,38.18
2023-02-14T09:51:51.734Z,37.29
2023-02-14T09:54:25.421Z,36.80
2023-02-14T09:56:59.773Z,37.15
2023-02-14T09:59:34.478Z,37.55
2023-02-14T10:02:23.936Z,37.51
2023-02-14T10:05:05.883Z,37.34
2023-02-14T10:07:47.193Z,36.51
2023-02-14T10:10:23.948Z,36.21
2023-02-14T10:12:57.862Z,36.49
2023-02-14T10:15:30.526Z,35.77
2023-02-14T10:18:06.986Z,35.52
2023-02-14T10:20:40.340Z,34.81
2023-02-14T10:23:25.825Z,34.93
2023-02-14T10:25:58.597Z,33.47
2023-02-14T10:28:33.173Z,35.20
2023-02-14T10:31:14.960Z,34.45
2023-02-14T10:33:52.598Z,33.61
2023-02-14T10:36:33.042Z,34.94
2023-02-14T10:39:07.655Z,34.40
2023-02-14T10:41:43.583Z,34.32
2023-02-14T10:44:25.293Z,33.63
2023-02-14T10:46:58.403Z,34.58
2023-02-14T10:49:37.669Z,34.49
2023-02-14T10:52:16.785Z,34.70
2023-02-14T10:54:54.171Z,34.01
2023-02-14T10:57:28.447Z,33.92
2023-02-14T11:00:00.521Z,34.08
2023-02-14T11:02:33.641Z,34.02
2023-02-14T11:05:04.868Z,34.25
2023-02-14T11:07:32.862Z,33.04
2023-02-14T11:10:02.046Z,32.90
2023-02-14T11:12:35.153Z,32.68
2023-02-14T11:15:19.460Z,32.32
2023-02-14T11:17:47.735Z,32.33
2023-02-14T11:20:30.401Z,31.99
2023-02-14T11:22:59.105Z,31.30
2023-02-14T11:25:29.913Z,30.60
2023-02-14T11:28:00.762Z,29.90
2023-02-14T11:30:32.752Z,29.30
2023-02-14T11:33:01.585Z,28.69
2023-02-14T11:35:34.983Z,29.71
2023-02-14T11:38:05.692Z,28.36
2023-02-14T11:40:35.971Z,28.51
2023-02-14T11:43:20.804Z,28.35
2023-02-14T11:45:50.523Z,26.88
2023-02-14T11:48:31.467Z,27.07
2023-02-14T11:51:10.105Z,26.95
2023-02-14T11:53:46.756Z,27.46
2023-02-14T11:56:16.375Z,26.57
2023-02-14T11:58:52.544Z,26.79
2023-02-14T12:01:26.124Z,26.47
2023-02-14T12:03:56.968Z,26.86
2023-02-14T12:06:30.266Z,26.39
2023-02-14T12:09:25.035Z,25.67
2023-02-14T12:11:57.313Z,25.68
2023-02-14T12:14:31.536Z,25.27
2023-02-14T12:17:05.830Z,25.78
2023-02-14T12:19:40.230Z,25.19
2023-02-14T12:22:14.472Z,24.27
2023-02-14T12:24:53.064Z,24.31
2023-02-14T12:27:25.737Z,24.29
2023-02-14T12:29:59.343Z,24.09
2023-02-14T12:32:28.884Z,23.96
2023-02-14T12:35:03.491Z,23.92
2023-02-14T12:37:50.853Z,23.50
2023-02-14T12:40:33.035Z,23.60
2023-02-14T12:43:21.183Z,24.14
2023-02-14T12:46:14.929Z,24.32
2023-02-14T12:48:57.655Z,24.41
2023-02-14T12:51:30.692Z,24.11
2023-02-14T12:54:37.242Z,24.63
2023-02-14T12:57:16.715Z,24.71
2023-02-14T12:59:56.739Z,25.38
2023-02-14T13:02:59.674Z,25.02
2023-02-14T13:05:39.865Z,24.98
2023-02-14T13:08:21.727Z,25.17
2023-02-14T13:11:02.853Z,24.73
2023-02-14T13:13:49.892Z,24.51
2023-02-14T13:16:28.133Z,24.09
2023-02-14T13:19:01.028Z,23.89
2023-02-14T13:21:34.242Z,23.47
2023-02-14T13:24:15.509Z,22.84
2023-02-14T13:26:48.605Z,23.13
2023-02-14T13:29:20.551Z,22.69
2023-02-14T13:31:53.217Z,23.25
2023-02-14T13:34:34.169Z,23.39
2023-02-14T13:37:04.976Z,23.88
2023-02-14T13:39:38.488Z,23.23
2023-02-14T13:42:08.943Z,23.58
2023-02-14T13:44:45.049Z,23.32
2023-02-14T13:47:21.322Z,23.29
2023-02-14T13:49:52.442Z,23.41
2023-02-14T13:52:40.577Z,23.02
2023-02-14T13:55:10.715Z,23.55
2023-02-14T13:57:41.372Z,23.56
2023-02-14T14:00:44.422Z,23.70
2023-02-14T14:03:15.546Z,22.95
2023-02-14T14:06:00.738Z,23.26
2023-02-14T14:08:47.393Z,23.47
2023-02-14T14:11:56.766Z,23.05
2023-02-14T14:14:37.416Z,23.30
2023-02-14T14:17:27.664Z,23.24
2023-02-14T14:19:58.028Z,23.66
2023-02-14T14:22:27.132Z,23.54
2023-02-14T14:24:58.202Z,23.43
2023-02-14T14:27:30.633Z,23.31
2023-02-14T14:30:01.597Z,23.58
2023-02-14T14:32:34.022Z,23.87
2023-02-14T14:35:07.090Z,23.77
2023-02-14T14:37:37.958Z,24.31
2023-02-14T14:40:20.522Z,24.30
2023-02-14T14:42:50.133Z,25.21
2023-02-14T14:45:26.819Z,25.52
2023-02-14T14:48:00.594Z,25.16
2023-02-14T14:50:31.569Z,24.59
2023-02-14T14:53:05.826Z,24.54
2023-02-14T14:55:39.616Z,23.54
2023-02-14T14:58:29.042Z,25.21
2023-02-14T15:00:58.627Z,25.45
2023-02-14T15:03:28.413Z,26.39
2023-02-14T15:06:07.258Z,26.38
2023-02-14T15:08:35.440Z,24.75
2023-02-14T15:11:08.847Z,25.10
2023-02-14T15:13:50.841Z,25.01
2023-02-14T15:16:22.726Z,24.58
2023-02-14T15:19:11.755Z,25.26
2023-02-14T15:21:44.520Z,25.97
2023-02-14T15:24:17.264Z,26.49
2023-02-14T15:26:47.835Z,26.83
2023-02-14T15:29:24.075Z,27.30
2023-02-14T15:31:54.419Z,27.53
2023-02-14T15:34:26.110Z,28.31
2023-02-14T15:36:59.253Z,29.14
2023-02-14T15:39:33.968Z,29.80
2023-02-14T15:42:02.417Z,30.47
2023-02-14T15:44:30.465Z,30.50
2023-02-14T15:47:03.097Z,30.86
2023-02-14T15:49:36.080Z,31.16
2023-02-14T15:52:06.750Z,31.33
2023-02-14T15:54:39.353Z,31.59
2023-02-14T15:57:18.162Z,31.43
2023-02-14T15:59:46.275Z,31.44
2023-02-14T16:02:29.169Z,31.05
2023-02-14T16:05:04.793Z,32.18
2023-02-14T16:07:32.895Z,32.34
2023-02-14T16:10:23.194Z,32.86
2023-02-14T16:13:01.308Z,32.80
2023-02-14T16:15:31.830Z,33.02
2023-02-14T16:18:06.986Z,33.05
2023-02-14T16:20:42.209Z,33.13
2023-02-14T16:23:23.373Z,33.23
2023-02-14T16:25:51.641Z,33.39
2023-02-14T16:28:19.909Z,33.44
2023-02-14T16:30:54.401Z,33.51
2023-02-14T16:33:26.548Z,34.03
2023-02-14T16:35:55.318Z,34.33
2023-02-14T16:38:24.010Z,34.93
2023-02-14T16:40:55.554Z,34.91
2023-02-14T16:43:23.769Z,35.20
2023-02-14T16:45:52.009Z,35.62
2023-02-14T16:48:19.962Z,37.54
2023-02-14T16:50:49.430Z,38.80
2023-02-14T16:53:26.191Z,37.76
2023-02-14T16:55:56.566Z,37.53
2023-02-14T16:58:29.375Z,37.32
2023-02-14T17:00:58.517Z,37.60
2023-02-14T17:03:26.821Z,37.16
2023-02-14T17:05:57.644Z,37.11
2023-02-14T17:08:26.135Z,38.01
2023-02-14T17:10:54.526Z,39.48
2023-02-14T17:13:26.186Z,39.69
2023-02-14T17:15:54.633Z,39.39
2023-02-14T17:18:24.775Z,40.00
2023-02-14T17:20:52.904Z,40.78
2023-02-14T17:23:24.445Z,41.34
2023-02-14T17:25:52.449Z,41.78
2023-02-14T17:28:20.556Z,43.17
2023-02-14T17:30:48.829Z,42.46
2023-02-14T17:33:16.862Z,43.61
2023-02-14T17:35:44.950Z,43.27
2023-02-14T17:38:13.520Z,43.87
2023-02-14T17:40:42.952Z,43.95
2023-02-14T17:43:11.133Z,44.51
2023-02-14T17:45:39.123Z,43.75
2023-02-14T17:48:07.341Z,44.35
2023-02-14T17:50:35.476Z,44.89
2023-02-14T17:53:03.499Z,44.29
2023-02-14T17:55:31.592Z,45.40
2023-02-14T17:58:01.035Z,45.96
2023-02-14T18:00:29.180Z,45.72
2023-02-14T18:02:57.202Z,46.03
2023-02-14T18:05:25.268Z,45.75
2023-02-14T18:07:53.418Z,45.25
2023-02-14T18:10:21.641Z,45.65
2023-02-14T18:12:49.817Z,46.09
2023-02-14T18:15:19.485Z,47.77
2023-02-14T18:17:50.670Z,47.60
2023-02-14T18:20:18.978Z,48.03
2023-02-14T18:22:46.988Z,48.49
2023-02-14T18:25:14.973Z,49.41
2023-02-14T18:27:42.990Z,48.47
2023-02-14T18:30:12.045Z,48.58
2023-02-14T18:32:43.497Z,48.72
2023-02-14T18:35:14.718Z,50.17
2023-02-14T18:37:43.167Z,50.54
2023-02-14T18:40:16.407Z,49.27
2023-02-14T18:42:44.629Z,48.32
2023-02-14T18:45:12.724Z,48.77
2023-02-14T18:47:44.530Z,48.74
2023-02-14T18:50:14.601Z,48.80
2023-02-14T18:52:43.009Z,49.29
2023-02-14T18:55:11.103Z,50.23
2023-02-14T18:57:39.193Z,50.56
2023-02-14T19:00:12.087Z,51.36
2023-02-14T19:02:40.440Z,50.76
2023-02-14T19:05:10.631Z,50.41
2023-02-14T19:07:38.722Z,50.67
2023-02-14T19:10:08.231Z,49.87
2023-02-14T19:12:36.313Z,50.61
2023-02-14T19:15:06.135Z,50.99
2023-02-14T19:17:34.287Z,50.95
2023-02-14T19:20:08.512Z,51.51
2023-02-14T19:22:39.970Z,52.19
2023-02-14T19:25:08.645Z,51.88
2023-02-14T19:27:37.127Z,52.68
2023-02-14T19:30:06.299Z,51.55
2023-02-14T19:32:37.639Z,52.03
2023-02-14T19:35:06.307Z,51.24
2023-02-14T19:37:37.470Z,50.94
2023-02-14T19:40:10.306Z,50.82
2023-02-14T19:42:38.628Z,50.85
2023-02-14T19:45:10.425Z,52.40
2023-02-14T19:47:46.666Z,52.90
2023-02-14T19:50:15.620Z,53.04
2023-02-14T19:52:44.601Z,52.73
2023-02-14T19:55:22.736Z,52.57
2023-02-14T19:57:50.768Z,52.65
2023-02-14T20:00:20.991Z,52.22
2023-02-14T20:02:49.389Z,52.90
2023-02-14T20:05:17.785Z,53.94
2023-02-14T20:07:49.224Z,53.46
2023-02-14T20:10:17.529Z,52.92
2023-02-14T20:12:47.494Z,52.21
2023-02-14T20:15:15.812Z,53.17
2023-02-14T20:17:44.277Z,54.77
2023-02-14T20:20:13.907Z,53.96
2023-02-14T20:22:42.023Z,54.01
2023-02-14T20:25:10.193Z,53.98
2023-02-14T20:27:38.765Z,52.91
2023-02-14T20:30:10.020Z,52.92
2023-02-14T20:32:38.182Z,53.78
2023-02-14T20:35:07.542Z,54.35
2023-02-14T20:37:35.677Z,54.02
2023-02-14T20:40:03.875Z,53.64
2023-02-14T20:42:32.080Z,53.89
2023-02-14T20:45:00.190Z,54.56
2023-02-14T20:47:29.556Z,53.87
2023-02-14T20:49:57.545Z,55.16
2023-02-14T20:52:27.315Z,54.73
2023-02-14T20:54:55.255Z,54.03
2023-02-14T20:57:23.640Z,53.63
2023-02-14T20:59:51.586Z,53.67
2023-02-14T21:02:19.562Z,54.87
2023-02-14T21:04:49.208Z,55.27
2023-02-14T21:07:17.624Z,55.45
2023-02-14T21:09:45.809Z,55.58
2023-02-14T21:12:13.906Z,54.61
2023-02-14T21:14:42.058Z,54.35
2023-02-14T21:17:10.089Z,54.51
2023-02-14T21:19:38.195Z,54.07
2023-02-14T21:22:07.685Z,54.20
2023-02-14T21:24:35.709Z,54.16
2023-02-14T21:27:03.774Z,54.43
2023-02-14T21:29:32.046Z,54.24
2023-02-14T21:32:02.531Z,54.61
2023-02-14T21:34:32.188Z,54.85
2023-02-14T21:37:00.361Z,53.74
2023-02-14T21:39:31.160Z,54.34
2023-02-14T21:41:59.791Z,55.19
2023-02-14T21:44:56.684Z,56.78
2023-02-14T21:47:24.644Z,56.14
2023-02-14T21:50:10.266Z,55.66
2023-02-14T21:52:38.213Z,55.50
2023-02-14T21:55:08.786Z,55.38
2023-02-14T21:57:36.774Z,55.26
2023-02-14T22:00:05.728Z,55.85
2023-02-14T22:02:33.801Z,56.42
2023-02-14T22:05:01.868Z,55.54
2023-02-14T22:07:29.996Z,55.48
2023-02-14T22:09:58.004Z,54.85
2023-02-14T22:12:27.725Z,54.86
2023-02-14T22:14:55.686Z,54.94
2023-02-14T22:17:24.036Z,54.30
2023-02-14T22:19:52.087Z,54.09
2023-02-14T22:22:20.030Z,53.68
2023-02-14T22:24:50.086Z,53.90
2023-02-14T22:27:18.082Z,53.80
2023-02-14T22:29:47.533Z,54.17
2023-02-14T22:32:15.757Z,53.66
2023-02-14T22:34:44.140Z,54.02
2023-02-14T22:37:12.251Z,54.68
2023-02-14T22:39:40.276Z,54.73
2023-02-14T22:42:10.011Z,54.52
2023-02-14T22:44:37.992Z,55.04
2023-02-14T22:47:07.479Z,56.05
2023-02-14T22:49:35.480Z,56.22
2023-02-14T22:52:03.682Z,57.42
2023-02-14T22:54:31.860Z,56.21
2023-02-14T22:57:00.242Z,56.46
2023-02-14T22:59:28.592Z,56.92
2023-02-14T23:01:56.686Z,55.63
2023-02-14T23:04:29.817Z,56.35
2023-02-14T23:06:58.323Z,56.61
2023-02-14T23:09:26.544Z,57.40
2023-02-14T23:11:54.542Z,57.83
2023-02-14T23:14:40.187Z,57.54
2023-02-14T23:17:25.884Z,58.30
2023-02-14T23:20:12.706Z,57.57
2023-02-14T23:22:41.846Z,56.58
2023-02-14T23:25:11.910Z,55.53
2023-02-14T23:27:43.356Z,55.22
2023-02-14T23:30:13.963Z,55.35
2023-02-14T23:32:42.091Z,55.73
2023-02-14T23:35:11.812Z,55.43
2023-02-14T23:37:39.800Z,55.67
2023-02-14T23:40:09.904Z,55.00
2023-02-14T23:42:37.905Z,56.04
2023-02-14T23:45:20.305Z,55.28
2023-02-14T23:47:48.299Z,55.09
2023-02-14T23:50:18.081Z,55.07
2023-02-14T23:52:46.310Z,54.71
2023-02-14T23:55:14.553Z,55.84
2023-02-14T23:57:42.526Z,55.69
